createdAt,value
2023-01-29T00:02:00.757Z,103194.91
2023-01-29T00:04:27.825Z,103189.69
2023-01-29T00:06:54.451Z,103193.19
2023-01-29T00:09:21.136Z,103190.53
2023-01-29T00:11:47.663Z,103182.66
2023-01-29T00:14:14.335Z,103187.97
2023-01-29T00:16:41.501Z,103191.53
2023-01-29T00:19:08.139Z,103190.59
2023-01-29T00:21:35.043Z,103194.19
2023-01-29T00:24:02.159Z,103188.03
2023-01-29T00:26:29.247Z,103178.38
2023-01-29T00:29:03.215Z,103179.28
2023-01-29T00:31:30.004Z,103172.28
2023-01-29T00:33:57.310Z,103167.00
2023-01-29T00:36:25.608Z,103176.72
2023-01-29T00:39:00.628Z,103171.44
2023-01-29T00:41:47.830Z,103177.66
2023-01-29T00:44:32.943Z,103172.34
2023-01-29T00:46:59.694Z,103159.25
2023-01-29T00:49:26.392Z,103159.19
2023-01-29T00:52:11.623Z,103153.97
2023-01-29T00:54:38.698Z,103150.50
2023-01-29T00:57:05.728Z,103153.19
2023-01-29T00:59:32.256Z,103150.56
2023-01-29T01:02:17.641Z,103147.06
2023-01-29T01:04:44.729Z,103153.28
2023-01-29T01:07:14.751Z,103146.25
2023-01-29T01:09:59.832Z,103145.41
2023-01-29T01:12:26.817Z,103157.78
2023-01-29T01:14:53.384Z,103163.13
2023-01-29T01:17:20.464Z,103170.22
2023-01-29T01:19:47.191Z,103159.75
2023-01-29T01:22:14.268Z,103165.91
2023-01-29T01:24:40.880Z,103166.78
2023-01-29T01:27:07.481Z,103164.19
2023-01-29T01:29:34.721Z,103166.84
2023-01-29T01:32:02.027Z,103159.81
2023-01-29T01:34:29.260Z,103155.41
2023-01-29T01:36:59.079Z,103155.47
2023-01-29T01:39:26.116Z,103154.63
2023-01-29T01:41:54.899Z,103154.63
2023-01-29T01:44:58.846Z,103159.06
2023-01-29T01:47:40.777Z,103166.16
2023-01-29T01:50:18.877Z,103162.72
2023-01-29T01:52:49.421Z,103161.84
2023-01-29T01:55:19.532Z,103158.34
2023-01-29T01:57:50.809Z,103160.97
2023-01-29T02:00:19.556Z,103165.41
2023-01-29T02:03:05.478Z,103166.34
2023-01-29T02:05:52.874Z,103168.19
2023-01-29T02:09:00.530Z,103162.97
2023-01-29T02:11:27.343Z,103160.31
2023-01-29T02:13:54.204Z,103160.31
2023-01-29T02:16:22.701Z,103162.09
2023-01-29T02:18:50.652Z,103167.41
2023-01-29T02:21:43.473Z,103176.25
2023-01-29T02:24:31.113Z,103181.63
2023-01-29T02:27:10.851Z,103179.13
2023-01-29T02:29:43.434Z,103178.22
2023-01-29T02:32:54.287Z,103185.28
2023-01-29T02:35:32.711Z,103175.75
2023-01-29T02:38:10.847Z,103175.75
2023-01-29T02:40:50.183Z,103179.34
2023-01-29T02:43:51.673Z,103172.31
2023-01-29T02:46:57.769Z,103166.38
2023-01-29T02:49:39.352Z,103162.09
2023-01-29T02:52:16.579Z,103166.16
2023-01-29T02:54:52.733Z,103160.03
2023-01-29T02:57:29.264Z,103153.00
2023-01-29T03:00:00.618Z,103153.16
2023-01-29T03:02:52.930Z,103156.59
2023-01-29T03:05:28.624Z,103143.59
2023-01-29T03:08:02.029Z,103145.31
2023-01-29T03:10:43.108Z,103145.16
2023-01-29T03:13:38.122Z,103147.84
2023-01-29T03:16:12.827Z,103139.84
2023-01-29T03:18:50.893Z,103128.66
2023-01-29T03:21:48.549Z,103123.31
2023-01-29T03:24:36.439Z,103124.06
2023-01-29T03:27:27.561Z,103111.94
2023-01-29T03:30:14.948Z,103111.00
2023-01-29T03:32:45.309Z,103103.13
2023-01-29T03:35:20.977Z,103104.00
2023-01-29T03:37:48.962Z,103097.13
2023-01-29T03:40:16.821Z,103103.06
2023-01-29T03:42:49.811Z,103103.94
2023-01-29T03:45:28.908Z,103099.75
2023-01-29T03:48:14.740Z,103085.75
2023-01-29T03:51:16.818Z,103093.63
2023-01-29T03:54:07.911Z,103102.28
2023-01-29T03:56:40.743Z,103094.41
2023-01-29T03:59:37.463Z,103084.03
2023-01-29T04:02:12.556Z,103082.97
2023-01-29T04:04:43.721Z,103088.53
2023-01-29T04:07:15.368Z,103083.91
2023-01-29T04:09:49.100Z,103081.56
2023-01-29T04:12:22.033Z,103079.75
2023-01-29T04:14:51.972Z,103084.19
2023-01-29T04:17:34.171Z,103075.41
2023-01-29T04:20:01.607Z,103084.03
2023-01-29T04:22:33.066Z,103084.03
2023-01-29T04:25:08.393Z,103080.59
2023-01-29T04:28:06.112Z,103083.34
2023-01-29T04:30:55.144Z,103075.47
2023-01-29T04:33:24.725Z,103060.66
2023-01-29T04:36:07.568Z,103070.25
2023-01-29T04:38:43.389Z,103068.47
2023-01-29T04:41:22.199Z,103065.09
2023-01-29T04:44:07.478Z,103058.03
2023-01-29T04:46:48.184Z,103044.09
2023-01-29T04:49:44.057Z,103040.66
2023-01-29T04:52:32.408Z,103043.09
2023-01-29T04:55:10.795Z,103039.66
2023-01-29T04:57:46.262Z,103034.50
2023-01-29T05:00:23.169Z,103048.50
2023-01-29T05:02:50.030Z,103039.72
2023-01-29T05:05:20.500Z,103038.00
2023-01-29T05:07:48.319Z,103042.38
2023-01-29T05:10:19.933Z,103042.53
2023-01-29T05:12:55.788Z,103049.44
2023-01-29T05:15:28.382Z,103050.38
2023-01-29T05:18:01.833Z,103059.16
2023-01-29T05:20:33.347Z,103049.50
2023-01-29T05:23:00.387Z,103038.34
2023-01-29T05:25:30.604Z,103037.41
2023-01-29T05:28:16.236Z,103045.09
2023-01-29T05:30:48.413Z,103042.66
2023-01-29T05:33:21.277Z,103053.09
2023-01-29T05:35:48.680Z,103046.28
2023-01-29T05:38:16.119Z,103046.19
2023-01-29T05:40:43.850Z,103044.47
2023-01-29T05:43:25.065Z,103046.97
2023-01-29T05:45:55.820Z,103028.63
2023-01-29T05:48:23.030Z,103030.41
2023-01-29T05:50:49.882Z,103031.19
2023-01-29T05:53:16.915Z,103020.53
2023-01-29T05:55:48.494Z,103015.06
2023-01-29T05:58:15.635Z,103007.22
2023-01-29T06:00:42.506Z,102996.50
2023-01-29T06:03:09.217Z,102994.66
2023-01-29T06:05:39.352Z,103000.72
2023-01-29T06:08:06.955Z,102996.31
2023-01-29T06:10:34.081Z,102996.38
2023-01-29T06:13:01.195Z,102987.72
2023-01-29T06:15:28.960Z,102998.03
2023-01-29T06:17:56.923Z,102996.25
2023-01-29T06:20:25.048Z,102977.16
2023-01-29T06:22:52.521Z,102987.59
2023-01-29T06:25:19.629Z,102980.50
2023-01-29T06:27:46.343Z,102981.31
2023-01-29T06:30:13.746Z,102989.22
2023-01-29T06:32:41.784Z,102981.22
2023-01-29T06:35:10.192Z,102978.78
2023-01-29T06:37:37.107Z,102976.94
2023-01-29T06:40:04.009Z,102980.50
2023-01-29T06:42:30.590Z,102986.78
2023-01-29T06:44:57.680Z,102972.16
2023-01-29T06:47:24.853Z,102980.50
2023-01-29T06:49:51.867Z,102956.16
2023-01-29T06:52:19.471Z,102970.00
2023-01-29T06:54:46.537Z,102961.22
2023-01-29T06:57:13.606Z,102961.34
2023-01-29T06:59:40.696Z,102970.00
2023-01-29T07:02:07.768Z,102967.50
2023-01-29T07:04:35.553Z,102972.72
2023-01-29T07:07:02.572Z,102972.72
2023-01-29T07:09:29.650Z,102966.56
2023-01-29T07:11:56.231Z,102968.44
2023-01-29T07:14:23.263Z,102960.66
2023-01-29T07:16:50.427Z,102972.16
2023-01-29T07:19:17.247Z,102984.28
2023-01-29T07:21:43.873Z,102976.63
2023-01-29T07:24:10.963Z,102986.94
2023-01-29T07:26:37.997Z,102978.25
2023-01-29T07:29:05.191Z,102977.38
2023-01-29T07:31:32.324Z,102976.53
2023-01-29T07:33:58.896Z,102982.59
2023-01-29T07:36:25.498Z,102978.25
2023-01-29T07:38:52.544Z,102950.28
2023-01-29T07:41:19.205Z,102956.31
2023-01-29T07:43:46.369Z,102951.91
2023-01-29T07:46:13.047Z,102947.56
2023-01-29T07:48:40.102Z,102951.13
2023-01-29T07:51:07.691Z,102950.28
2023-01-29T07:53:34.346Z,102951.19
2023-01-29T07:56:01.390Z,102939.16
2023-01-29T07:58:27.959Z,102938.84
2023-01-29T08:00:54.594Z,102937.97
2023-01-29T08:03:21.237Z,102942.16
2023-01-29T08:05:48.208Z,102940.31
2023-01-29T08:08:15.746Z,102936.81
2023-01-29T08:10:42.748Z,102941.94
2023-01-29T08:13:10.351Z,102944.56
2023-01-29T08:15:39.076Z,102939.34
2023-01-29T08:18:06.186Z,102940.06
2023-01-29T08:20:32.960Z,102931.34
2023-01-29T08:23:04.739Z,102916.59
2023-01-29T08:25:32.998Z,102933.00
2023-01-29T08:28:01.154Z,102920.66
2023-01-29T08:30:31.051Z,102913.88
2023-01-29T08:32:57.754Z,102926.78
2023-01-29T08:35:24.498Z,102925.00
2023-01-29T08:38:01.663Z,102910.94
2023-01-29T08:40:31.638Z,102906.50
2023-01-29T08:43:02.029Z,102915.09
2023-01-29T08:45:30.331Z,102916.00
2023-01-29T08:47:57.065Z,102918.47
2023-01-29T08:50:23.904Z,102904.44
2023-01-29T08:52:50.975Z,102905.13
2023-01-29T08:55:18.065Z,102904.06
2023-01-29T08:57:44.852Z,102897.97
2023-01-29T09:00:12.009Z,102903.84
2023-01-29T09:02:39.070Z,102901.19
2023-01-29T09:05:06.444Z,102902.91
2023-01-29T09:07:33.296Z,102891.47
2023-01-29T09:10:00.479Z,102891.38
2023-01-29T09:12:27.191Z,102895.59
2023-01-29T09:14:54.295Z,102897.31
2023-01-29T09:17:20.854Z,102905.16
2023-01-29T09:19:47.472Z,102894.72
2023-01-29T09:22:14.132Z,102906.81
2023-01-29T09:24:40.735Z,102894.59
2023-01-29T09:27:07.765Z,102888.44
2023-01-29T09:29:35.968Z,102887.72
2023-01-29T09:32:05.407Z,102905.25
2023-01-29T09:34:33.782Z,102906.25
2023-01-29T09:37:00.895Z,102901.09
2023-01-29T09:39:27.458Z,102902.06
2023-01-29T09:42:03.448Z,102902.91
2023-01-29T09:44:48.650Z,102889.97
2023-01-29T09:47:18.827Z,102903.97
2023-01-29T09:50:01.974Z,102890.97
2023-01-29T09:52:55.513Z,102889.13
2023-01-29T09:55:26.474Z,102886.63
2023-01-29T09:57:53.004Z,102883.19
2023-01-29T10:00:25.114Z,102877.03
2023-01-29T10:03:11.141Z,102871.94
2023-01-29T10:05:55.723Z,102878.22
2023-01-29T10:08:50.374Z,102875.66
2023-01-29T10:11:35.035Z,102874.94
2023-01-29T10:14:37.833Z,102867.31
2023-01-29T10:17:17.111Z,102853.34
2023-01-29T10:19:43.676Z,102856.66
2023-01-29T10:22:51.389Z,102853.41
2023-01-29T10:25:21.304Z,102847.41
2023-01-29T10:27:53.986Z,102864.00
2023-01-29T10:30:40.164Z,102857.91
2023-01-29T10:33:15.302Z,102839.50
2023-01-29T10:35:46.727Z,102836.91
2023-01-29T10:38:33.705Z,102849.13
2023-01-29T10:41:14.939Z,102848.28
2023-01-29T10:43:51.827Z,102839.66
2023-01-29T10:46:31.511Z,102837.09
2023-01-29T10:49:21.938Z,102834.53
2023-01-29T10:52:17.136Z,102819.72
2023-01-29T10:55:16.285Z,102833.81
2023-01-29T10:57:55.166Z,102835.44
2023-01-29T11:00:30.539Z,102834.72
2023-01-29T11:02:57.351Z,102810.41
2023-01-29T11:05:35.155Z,102814.03
2023-01-29T11:08:15.524Z,102808.53
2023-01-29T11:10:54.254Z,102816.63
2023-01-29T11:13:35.301Z,102814.75
2023-01-29T11:16:05.067Z,102800.78
2023-01-29T11:18:51.587Z,102792.06
2023-01-29T11:21:19.351Z,102785.19
2023-01-29T11:23:46.581Z,102798.19
2023-01-29T11:26:19.283Z,102802.63
2023-01-29T11:28:48.070Z,102785.19
2023-01-29T11:31:27.512Z,102784.84
2023-01-29T11:34:03.439Z,102788.09
2023-01-29T11:36:34.913Z,102781.81
2023-01-29T11:39:24.664Z,102774.69
2023-01-29T11:42:04.075Z,102766.34
2023-01-29T11:44:40.869Z,102757.50
2023-01-29T11:47:12.454Z,102764.06
2023-01-29T11:49:44.795Z,102761.53
2023-01-29T11:52:14.045Z,102753.13
2023-01-29T11:54:51.554Z,102745.19
2023-01-29T11:57:41.180Z,102742.34
2023-01-29T12:00:22.179Z,102738.91
2023-01-29T12:03:07.374Z,102737.78
2023-01-29T12:05:34.174Z,102732.50
2023-01-29T12:08:02.960Z,102730.72
2023-01-29T12:10:32.989Z,102729.41
2023-01-29T12:13:15.834Z,102729.41
2023-01-29T12:15:43.035Z,102730.19
2023-01-29T12:18:35.471Z,102726.59
2023-01-29T12:21:04.783Z,102723.88
2023-01-29T12:23:39.234Z,102714.22
2023-01-29T12:26:16.079Z,102712.44
2023-01-29T12:29:16.276Z,102687.13
2023-01-29T12:31:48.809Z,102699.13
2023-01-29T12:34:43.563Z,102677.97
2023-01-29T12:37:21.339Z,102670.91
2023-01-29T12:39:50.143Z,102660.34
2023-01-29T12:42:20.504Z,102659.66
2023-01-29T12:44:57.723Z,102643.63
2023-01-29T12:47:32.141Z,102637.47
2023-01-29T12:50:05.583Z,102618.97
2023-01-29T12:52:49.886Z,102612.75
2023-01-29T12:55:27.208Z,102604.72
2023-01-29T12:58:02.197Z,102606.13
2023-01-29T13:00:33.853Z,102585.13
2023-01-29T13:03:31.238Z,102581.03
2023-01-29T13:06:02.571Z,102579.16
2023-01-29T13:08:58.012Z,102566.63
2023-01-29T13:11:30.262Z,102558.50
2023-01-29T13:14:02.189Z,102553.06
2023-01-29T13:16:36.325Z,102540.75
2023-01-29T13:19:06.566Z,102545.44
2023-01-29T13:21:41.866Z,102549.56
2023-01-29T13:24:23.609Z,102540.59
2023-01-29T13:26:50.721Z,102536.16
2023-01-29T13:29:26.507Z,102534.69
2023-01-29T13:31:56.115Z,102520.50
2023-01-29T13:34:29.424Z,102524.78
2023-01-29T13:36:59.234Z,102515.81
2023-01-29T13:39:34.962Z,102524.41
2023-01-29T13:42:14.720Z,102519.53
2023-01-29T13:44:41.541Z,102524.47
2023-01-29T13:47:11.817Z,102526.00
2023-01-29T13:49:43.067Z,102507.56
2023-01-29T13:52:44.720Z,102519.59
2023-01-29T13:55:14.257Z,102514.94
2023-01-29T13:57:43.936Z,102508.56
2023-01-29T14:00:22.686Z,102505.66
2023-01-29T14:02:55.349Z,102503.66
2023-01-29T14:05:30.908Z,102492.78
2023-01-29T14:07:59.235Z,102489.13
2023-01-29T14:10:31.527Z,102497.66
2023-01-29T14:13:04.185Z,102505.19
2023-01-29T14:15:34.325Z,102483.25
2023-01-29T14:18:05.094Z,102496.81
2023-01-29T14:20:45.955Z,102490.34
2023-01-29T14:23:40.480Z,102485.63
2023-01-29T14:26:34.736Z,102466.41
2023-01-29T14:29:21.661Z,102467.00
2023-01-29T14:32:08.793Z,102472.00
2023-01-29T14:34:48.939Z,102468.31
2023-01-29T14:37:15.433Z,102464.34
2023-01-29T14:39:45.998Z,102469.34
2023-01-29T14:42:18.916Z,102454.84
2023-01-29T14:44:45.729Z,102449.38
2023-01-29T14:47:46.265Z,102437.16
2023-01-29T14:50:34.760Z,102454.06
2023-01-29T14:53:20.434Z,102445.94
2023-01-29T14:56:12.625Z,102448.25
2023-01-29T14:58:45.545Z,102439.69
2023-01-29T15:01:25.812Z,102439.53
2023-01-29T15:03:59.304Z,102435.63
2023-01-29T15:06:45.779Z,102434.69
2023-01-29T15:09:36.545Z,102428.94
2023-01-29T15:12:27.034Z,102427.25
2023-01-29T15:15:21.437Z,102425.06
2023-01-29T15:18:09.318Z,102430.66
2023-01-29T15:20:39.012Z,102423.00
2023-01-29T15:23:25.904Z,102417.88
2023-01-29T15:25:56.388Z,102406.06
2023-01-29T15:28:23.640Z,102403.59
2023-01-29T15:30:56.418Z,102409.47
2023-01-29T15:33:23.306Z,102401.88
2023-01-29T15:36:06.805Z,102410.59
2023-01-29T15:38:33.842Z,102400.38
2023-01-29T15:41:02.972Z,102401.97
2023-01-29T15:43:37.535Z,102395.28
2023-01-29T15:46:19.888Z,102396.91
2023-01-29T15:48:49.046Z,102391.88
2023-01-29T15:51:20.984Z,102417.31
2023-01-29T15:53:54.162Z,102405.88
2023-01-29T15:56:34.995Z,102415.63
2023-01-29T15:59:09.410Z,102412.38
2023-01-29T16:01:37.030Z,102404.44
2023-01-29T16:04:04.230Z,102394.09
2023-01-29T16:06:37.511Z,102396.69
2023-01-29T16:09:06.009Z,102410.75
2023-01-29T16:11:35.886Z,102401.97
2023-01-29T16:14:04.411Z,102407.28
2023-01-29T16:16:31.191Z,102388.31
2023-01-29T16:19:00.752Z,102396.00
2023-01-29T16:21:43.507Z,102392.59
2023-01-29T16:24:15.946Z,102393.44
2023-01-29T16:26:47.879Z,102387.38
2023-01-29T16:29:18.341Z,102391.06
2023-01-29T16:31:47.566Z,102388.50
2023-01-29T16:34:32.715Z,102378.09
2023-01-29T16:37:03.347Z,102380.75
2023-01-29T16:39:32.758Z,102378.00
2023-01-29T16:42:19.828Z,102378.00
2023-01-29T16:44:54.701Z,102370.16
2023-01-29T16:47:29.650Z,102372.94
2023-01-29T16:49:59.030Z,102373.78
2023-01-29T16:52:32.192Z,102365.72
2023-01-29T16:55:20.966Z,102362.22
2023-01-29T16:57:53.634Z,102371.13
2023-01-29T17:00:25.469Z,102354.94
2023-01-29T17:02:56.864Z,102363.28
2023-01-29T17:05:30.200Z,102369.50
2023-01-29T17:07:58.772Z,102351.25
2023-01-29T17:10:27.362Z,102354.47
2023-01-29T17:13:32.954Z,102355.44
2023-01-29T17:16:14.815Z,102349.56
2023-01-29T17:18:41.942Z,102325.19
2023-01-29T17:21:08.475Z,102341.44
2023-01-29T17:23:35.033Z,102325.63
2023-01-29T17:26:02.547Z,102327.34
2023-01-29T17:28:29.165Z,102332.63
2023-01-29T17:31:05.755Z,102329.13
2023-01-29T17:33:35.563Z,102327.34
2023-01-29T17:36:05.779Z,102322.13
2023-01-29T17:38:33.249Z,102320.44
2023-01-29T17:41:07.386Z,102319.59
2023-01-29T17:43:34.934Z,102305.81
2023-01-29T17:46:01.550Z,102310.88
2023-01-29T17:48:29.808Z,102300.50
2023-01-29T17:51:03.025Z,102308.06
2023-01-29T17:53:44.356Z,102294.81
2023-01-29T17:56:17.123Z,102299.25
2023-01-29T17:58:44.002Z,102280.28
2023-01-29T18:01:10.623Z,102306.34
2023-01-29T18:03:37.264Z,102296.06
2023-01-29T18:06:07.322Z,102289.72
2023-01-29T18:08:37.354Z,102275.72
2023-01-29T18:11:04.457Z,102271.19
2023-01-29T18:13:31.599Z,102260.81
2023-01-29T18:15:58.196Z,102251.72
2023-01-29T18:18:25.091Z,102265.34
2023-01-29T18:20:52.210Z,102272.97
2023-01-29T18:23:19.489Z,102257.09
2023-01-29T18:25:46.415Z,102247.59
2023-01-29T18:28:17.066Z,102247.69
2023-01-29T18:30:47.035Z,102251.16
2023-01-29T18:33:14.931Z,102224.03
2023-01-29T18:35:41.971Z,102230.63
2023-01-29T18:38:08.528Z,102221.13
2023-01-29T18:40:35.076Z,102217.63
2023-01-29T18:43:01.724Z,102206.91
2023-01-29T18:45:28.875Z,102195.69
2023-01-29T18:47:55.871Z,102205.97
2023-01-29T18:50:26.405Z,102195.50
2023-01-29T18:52:54.348Z,102189.25
2023-01-29T18:55:22.121Z,102178.13
2023-01-29T18:58:28.983Z,102187.00
2023-01-29T19:00:41.605Z,102192.09
2023-01-29T19:03:08.669Z,102190.59
2023-01-29T19:05:35.748Z,102196.91
2023-01-29T19:08:02.915Z,102191.34
2023-01-29T19:10:29.438Z,102204.56
2023-01-29T19:12:56.027Z,102191.44
2023-01-29T19:15:23.364Z,102193.31
2023-01-29T19:17:51.081Z,102166.41
2023-01-29T19:20:19.276Z,102172.34
2023-01-29T19:22:46.000Z,102170.63
2023-01-29T19:25:13.782Z,102168.66
2023-01-29T19:27:40.426Z,102147.91
2023-01-29T19:30:08.416Z,102150.13
2023-01-29T19:32:35.383Z,102157.22
2023-01-29T19:35:02.045Z,102146.91
2023-01-29T19:37:30.507Z,102153.28
2023-01-29T19:39:57.131Z,102156.47
2023-01-29T19:42:23.918Z,102164.72
2023-01-29T19:44:52.091Z,102164.41
2023-01-29T19:47:18.969Z,102158.66
2023-01-29T19:49:45.661Z,102160.38
2023-01-29T19:52:49.805Z,102170.63
2023-01-29T19:55:17.979Z,102160.56
2023-01-29T19:57:44.823Z,102166.41
2023-01-29T20:00:15.478Z,102148.09
2023-01-29T20:02:42.093Z,102154.84
2023-01-29T20:05:11.952Z,102145.44
2023-01-29T20:07:40.040Z,102156.69
2023-01-29T20:10:09.673Z,102129.66
2023-01-29T20:12:36.293Z,102134.66
2023-01-29T20:15:03.343Z,102124.09
2023-01-29T20:17:30.264Z,102110.84
2023-01-29T20:19:56.826Z,102123.22
2023-01-29T20:22:23.466Z,102126.81
2023-01-29T20:24:50.043Z,102129.47
2023-01-29T20:27:16.600Z,102135.72
2023-01-29T20:29:45.298Z,102119.66
2023-01-29T20:32:12.977Z,102106.59
2023-01-29T20:34:39.548Z,102109.34
2023-01-29T20:37:06.308Z,102130.31
2023-01-29T20:39:33.684Z,102144.28
2023-01-29T20:42:00.357Z,102116.34
2023-01-29T20:44:26.909Z,102139.97
2023-01-29T20:46:54.158Z,102126.72
2023-01-29T20:49:21.789Z,102130.09
2023-01-29T20:51:48.351Z,102118.66
2023-01-29T20:54:14.994Z,102134.34
2023-01-29T20:56:42.085Z,102132.75
2023-01-29T20:59:11.326Z,102112.66
2023-01-29T21:01:37.889Z,102123.00
2023-01-29T21:04:04.474Z,102119.44
2023-01-29T21:06:31.239Z,102103.78
2023-01-29T21:09:00.267Z,102124.53
2023-01-29T21:11:27.002Z,102124.53
2023-01-29T21:13:57.550Z,102115.66
2023-01-29T21:16:26.242Z,102107.13
2023-01-29T21:18:58.057Z,102119.13
2023-01-29T21:21:26.611Z,102120.09
2023-01-29T21:23:53.373Z,102127.16
2023-01-29T21:26:20.060Z,102125.38
2023-01-29T21:28:46.648Z,102117.53
2023-01-29T21:31:14.653Z,102077.09
2023-01-29T21:33:41.255Z,102076.16
2023-01-29T21:36:08.647Z,102075.94
2023-01-29T21:38:35.374Z,102049.41
2023-01-29T21:41:04.570Z,102043.44
2023-01-29T21:43:31.252Z,102029.94
2023-01-29T21:46:00.562Z,102007.91
2023-01-29T21:48:27.208Z,102001.97
2023-01-29T21:50:53.799Z,101994.69
2023-01-29T21:53:20.997Z,101969.56
2023-01-29T21:55:48.204Z,101964.91
2023-01-29T21:58:14.886Z,101967.47
2023-01-29T22:00:41.515Z,101979.66
2023-01-29T22:03:16.287Z,101978.25
2023-01-29T22:05:43.336Z,101984.09
2023-01-29T22:08:10.026Z,101978.16
2023-01-29T22:10:36.980Z,101981.44
2023-01-29T22:13:04.265Z,101976.25
2023-01-29T22:15:30.873Z,101972.66
2023-01-29T22:17:57.987Z,101964.91
2023-01-29T22:20:30.699Z,101962.28
2023-01-29T22:22:59.399Z,101968.50
2023-01-29T22:25:26.504Z,101981.44
2023-01-29T22:27:53.724Z,101955.47
2023-01-29T22:30:21.706Z,101948.81
2023-01-29T22:32:48.893Z,101963.56
2023-01-29T22:35:16.226Z,101953.16
2023-01-29T22:37:43.283Z,101939.47
2023-01-29T22:40:10.910Z,101942.88
2023-01-29T22:42:37.523Z,101944.97
2023-01-29T22:45:04.312Z,101929.41
2023-01-29T22:47:33.140Z,101924.22
2023-01-29T22:50:00.196Z,101941.78
2023-01-29T22:52:28.391Z,101951.31
2023-01-29T22:54:55.543Z,101952.38
2023-01-29T22:57:22.206Z,101948.78
2023-01-29T22:59:48.759Z,101946.22
2023-01-29T23:02:15.861Z,101926.03
2023-01-29T23:04:42.978Z,101923.47
2023-01-29T23:07:09.692Z,101933.19
2023-01-29T23:09:36.747Z,101919.22
2023-01-29T23:12:04.316Z,101911.53
2023-01-29T23:14:30.974Z,101910.97
2023-01-29T23:16:58.076Z,101918.59
2023-01-29T23:19:25.243Z,101899.34
2023-01-29T23:21:52.335Z,101895.94
2023-01-29T23:24:19.460Z,101895.09
2023-01-29T23:27:04.738Z,101889.91
2023-01-29T23:29:31.756Z,101896.03
2023-01-29T23:31:58.330Z,101884.63
2023-01-29T23:34:25.406Z,101888.41
2023-01-29T23:36:52.488Z,101868.19
2023-01-29T23:39:19.086Z,101866.50
2023-01-29T23:41:46.083Z,101869.91
2023-01-29T23:44:13.153Z,101883.88
2023-01-29T23:46:40.073Z,101870.84
2023-01-29T23:49:07.356Z,101876.97
2023-01-29T23:51:34.365Z,101887.47
2023-01-29T23:54:01.960Z,101898.97
2023-01-29T23:56:29.001Z,101899.94
2023-01-29T23:58:57.239Z,101879.19
